Time,TemperatureF,DewpointF,PressureIn,WindDirection,WindDirectionDegrees,WindSpeedMPH,WindSpeedGustMPH,Humidity,HourlyPrecipIn,Conditions,Clouds,dailyrainin,SolarRadiationWatts/m^2,SoftwareType,DateUTC
2013-04-06 00:22:00,42.0,35.0,-100.00,SSW,203,8.0,15.0,77,0.00,,,0.05,1.000000,,2013-04-06 07:22:00,
2013-04-06 00:32:00,42.0,35.0,-100.00,SSW,203,8.0,15.0,77,0.00,,,0.05,1.000000,,2013-04-06 07:32:00,
2013-04-06 00:42:00,42.0,35.0,-100.00,SSW,203,8.0,15.0,77,0.00,,,0.05,1.000000,,2013-04-06 07:42:00,
2013-04-06 00:52:00,42.0,35.0,-100.00,SSW,203,8.0,15.0,77,0.00,,,0.05,1.000000,,2013-04-06 07:52:00,
2013-04-06 01:22:00,40.0,36.0,-100.00,SSW,207,10.0,24.0,85,0.01,,,0.05,1.000000,,2013-04-06 08:22:00,
2013-04-06 01:32:00,40.0,36.0,-100.00,SSW,207,10.0,24.0,85,0.01,,,0.05,1.000000,,2013-04-06 08:32:00,
2013-04-06 01:42:00,40.0,36.0,-100.00,SSW,207,10.0,24.0,85,0.01,,,0.05,1.000000,,2013-04-06 08:42:00,
2013-04-06 01:52:00,40.0,36.0,-100.00,SSW,207,10.0,24.0,85,0.01,,,0.05,1.000000,,2013-04-06 08:52:00,
2013-04-06 02:22:00,40.0,37.0,-100.00,SSW,205,12.0,21.0,88,0.00,,,0.04,1.000000,,2013-04-06 09:22:00,
2013-04-06 02:32:00,40.0,37.0,-100.00,SSW,205,12.0,21.0,88,0.00,,,0.04,1.000000,,2013-04-06 09:32:00,
2013-04-06 02:42:00,40.0,37.0,-100.00,SSW,205,12.0,21.0,88,0.00,,,0.04,1.000000,,2013-04-06 09:42:00,
2013-04-06 02:52:00,40.0,37.0,-100.00,SSW,205,12.0,21.0,88,0.00,,,0.04,1.000000,,2013-04-06 09:52:00,
2013-04-06 03:22:00,39.0,37.0,-100.00,SSW,202,7.0,18.0,93,0.01,,,0.04,1.000000,,2013-04-06 10:22:00,
2013-04-06 03:32:00,39.0,37.0,-100.00,SSW,202,7.0,18.0,93,0.01,,,0.04,1.000000,,2013-04-06 10:32:00,
2013-04-06 03:42:00,39.0,37.0,-100.00,SSW,202,7.0,18.0,93,0.01,,,0.04,1.000000,,2013-04-06 10:42:00,
2013-04-06 03:52:00,39.0,37.0,-100.00,SSW,202,7.0,18.0,93,0.01,,,0.04,1.000000,,2013-04-06 10:52:00,
2013-04-06 04:22:00,39.0,38.0,-100.00,SSW,213,9.0,20.0,95,0.01,,,0.05,1.000000,,2013-04-06 11:22:00,
2013-04-06 04:32:00,39.0,38.0,-100.00,SSW,213,9.0,20.0,95,0.01,,,0.05,1.000000,,2013-04-06 11:32:00,
2013-04-06 04:42:00,39.0,38.0,-100.00,SSW,213,9.0,20.0,95,0.01,,,0.05,1.000000,,2013-04-06 11:42:00,
2013-04-06 04:52:00,39.0,38.0,-100.00,SSW,213,9.0,20.0,95,0.01,,,0.05,1.000000,,2013-04-06 11:52:00,
2013-04-06 05:22:00,40.0,38.0,-100.00,WSW,237,13.0,19.0,93,0.01,,,0.06,1.000000,,2013-04-06 12:22:00,
2013-04-06 05:32:00,40.0,38.0,-100.00,WSW,237,13.0,19.0,93,0.01,,,0.06,1.000000,,2013-04-06 12:32:00,
2013-04-06 05:42:00,40.0,38.0,-100.00,WSW,237,13.0,19.0,93,0.01,,,0.06,1.000000,,2013-04-06 12:42:00,
2013-04-06 05:52:00,40.0,38.0,-100.00,WSW,237,13.0,19.0,93,0.01,,,0.06,1.000000,,2013-04-06 12:52:00,
2013-04-06 06:23:00,40.0,37.0,-100.00,SW,230,11.0,23.0,89,0.00,,,0.06,1.000000,,2013-04-06 13:23:00,
2013-04-06 06:32:00,40.0,37.0,-100.00,SW,230,11.0,23.0,89,0.00,,,0.06,1.000000,,2013-04-06 13:32:00,
2013-04-06 06:42:00,40.0,37.0,-100.00,SW,230,11.0,23.0,89,0.00,,,0.06,1.000000,,2013-04-06 13:42:00,
2013-04-06 06:52:00,40.0,37.0,-100.00,SW,230,11.0,23.0,89,0.00,,,0.06,1.000000,,2013-04-06 13:52:00,
2013-04-06 07:22:00,40.0,37.0,-100.00,WSW,241,11.0,18.0,89,0.01,,,0.07,2.000000,,2013-04-06 14:22:00,
2013-04-06 07:32:00,40.0,37.0,-100.00,WSW,241,11.0,18.0,89,0.01,,,0.07,2.000000,,2013-04-06 14:32:00,
2013-04-06 07:42:00,40.0,37.0,-100.00,WSW,241,11.0,18.0,89,0.01,,,0.07,2.000000,,2013-04-06 14:42:00,
2013-04-06 07:52:00,40.0,37.0,-100.00,WSW,241,11.0,18.0,89,0.01,,,0.07,2.000000,,2013-04-06 14:52:00,
2013-04-06 08:22:00,39.0,35.0,-100.00,WSW,247,10.0,18.0,85,0.00,,,0.07,39.000000,,2013-04-06 15:22:00,
2013-04-06 08:33:00,39.0,35.0,-100.00,WSW,247,10.0,18.0,85,0.00,,,0.07,39.000000,,2013-04-06 15:33:00,
2013-04-06 08:42:00,39.0,35.0,-100.00,WSW,247,10.0,18.0,85,0.00,,,0.07,39.000000,,2013-04-06 15:42:00,
2013-04-06 08:52:00,39.0,35.0,-100.00,WSW,247,10.0,18.0,85,0.00,,,0.07,39.000000,,2013-04-06 15:52:00,
2013-04-06 09:23:00,42.0,38.0,-100.00,WSW,239,4.0,16.0,84,0.00,,,0.07,121.000000,,2013-04-06 16:23:00,
2013-04-06 09:32:00,42.0,38.0,-100.00,WSW,239,4.0,16.0,84,0.00,,,0.07,121.000000,,2013-04-06 16:32:00,
2013-04-06 09:42:00,42.0,38.0,-100.00,WSW,239,4.0,16.0,84,0.00,,,0.07,121.000000,,2013-04-06 16:42:00,
2013-04-06 09:52:00,42.0,38.0,-100.00,WSW,239,4.0,16.0,84,0.00,,,0.07,121.000000,,2013-04-06 16:52:00,
2013-04-06 10:22:00,40.0,36.0,-100.00,West,271,11.0,18.0,84,0.01,,,0.08,154.000000,,2013-04-06 17:22:00,
2013-04-06 10:32:00,40.0,36.0,-100.00,West,271,11.0,18.0,84,0.01,,,0.08,154.000000,,2013-04-06 17:32:00,
2013-04-06 10:42:00,40.0,36.0,-100.00,West,271,11.0,18.0,84,0.01,,,0.08,154.000000,,2013-04-06 17:42:00,
2013-04-06 10:52:00,40.0,36.0,-100.00,West,271,11.0,18.0,84,0.01,,,0.08,154.000000,,2013-04-06 17:52:00,
2013-04-06 11:23:00,45.0,37.0,-100.00,SW,222,14.0,25.0,74,0.00,,,0.08,318.000000,,2013-04-06 18:23:00,
2013-04-06 11:32:00,45.0,37.0,-100.00,SW,222,14.0,25.0,74,0.00,,,0.08,318.000000,,2013-04-06 18:32:00,
2013-04-06 11:42:00,45.0,37.0,-100.00,SW,222,14.0,25.0,74,0.00,,,0.08,318.000000,,2013-04-06 18:42:00,
2013-04-06 11:52:00,45.0,37.0,-100.00,SW,222,14.0,25.0,74,0.00,,,0.08,318.000000,,2013-04-06 18:52:00,
2013-04-06 12:22:00,45.0,34.0,-100.00,WSW,247,11.0,22.0,64,0.00,,,0.08,425.000000,,2013-04-06 19:22:00,
2013-04-06 12:32:00,45.0,34.0,-100.00,WSW,247,11.0,22.0,64,0.00,,,0.08,425.000000,,2013-04-06 19:32:00,
2013-04-06 12:42:00,45.0,34.0,-100.00,WSW,247,11.0,22.0,64,0.00,,,0.08,425.000000,,2013-04-06 19:42:00,
2013-04-06 12:52:00,45.0,34.0,-100.00,WSW,247,11.0,22.0,64,0.00,,,0.08,425.000000,,2013-04-06 19:52:00,
2013-04-06 13:22:00,49.0,37.0,-100.00,WSW,237,13.0,24.0,62,0.00,,,0.08,546.000000,,2013-04-06 20:22:00,
2013-04-06 13:32:00,49.0,37.0,-100.00,WSW,237,13.0,24.0,62,0.00,,,0.08,546.000000,,2013-04-06 20:32:00,
2013-04-06 13:42:00,49.0,37.0,-100.00,WSW,237,13.0,24.0,62,0.00,,,0.08,546.000000,,2013-04-06 20:42:00,
2013-04-06 13:52:00,49.0,37.0,-100.00,WSW,237,13.0,24.0,62,0.00,,,0.08,546.000000,,2013-04-06 20:52:00,
2013-04-06 14:22:00,47.0,33.0,-100.00,WSW,251,11.0,21.0,57,0.00,,,0.08,459.000000,,2013-04-06 21:22:00,
2013-04-06 14:33:00,47.0,33.0,-100.00,WSW,251,11.0,21.0,57,0.00,,,0.08,459.000000,,2013-04-06 21:33:00,
2013-04-06 14:43:00,47.0,33.0,-100.00,WSW,251,11.0,21.0,57,0.00,,,0.08,459.000000,,2013-04-06 21:43:00,
2013-04-06 14:52:00,47.0,33.0,-100.00,WSW,251,11.0,21.0,57,0.00,,,0.08,459.000000,,2013-04-06 21:52:00,
2013-04-06 15:22:00,48.0,34.0,-100.00,West,265,7.0,22.0,58,0.00,,,0.08,382.000000,,2013-04-06 22:22:00,
2013-04-06 15:34:00,48.0,34.0,-100.00,West,265,7.0,22.0,58,0.00,,,0.08,382.000000,,2013-04-06 22:34:00,
2013-04-06 15:43:00,48.0,34.0,-100.00,West,265,7.0,22.0,58,0.00,,,0.08,382.000000,,2013-04-06 22:43:00,
2013-04-06 15:52:00,48.0,34.0,-100.00,West,265,7.0,22.0,58,0.00,,,0.08,382.000000,,2013-04-06 22:52:00,
2013-04-06 17:22:00,40.0,36.0,-100.00,SW,229,9.0,29.0,87,-99.99,,,0.09,116.000000,,2013-04-07 00:22:00,
2013-04-06 17:32:00,40.0,36.0,-100.00,SW,229,9.0,29.0,87,-99.99,,,0.09,116.000000,,2013-04-07 00:32:00,
2013-04-06 17:42:00,40.0,36.0,-100.00,SW,229,9.0,29.0,87,-99.99,,,0.09,116.000000,,2013-04-07 00:42:00,
2013-04-06 17:52:00,40.0,36.0,-100.00,SW,229,9.0,29.0,87,-99.99,,,0.09,116.000000,,2013-04-07 00:52:00,
2013-04-06 18:22:00,39.0,35.0,-100.00,SW,229,17.0,27.0,87,0.02,,,0.11,108.000000,,2013-04-07 01:22:00,
2013-04-06 18:32:00,39.0,35.0,-100.00,SW,229,17.0,27.0,87,0.02,,,0.11,108.000000,,2013-04-07 01:32:00,
2013-04-06 18:42:00,39.0,35.0,-100.00,SW,229,17.0,27.0,87,0.02,,,0.11,108.000000,,2013-04-07 01:42:00,
2013-04-06 18:52:00,39.0,35.0,-100.00,SW,229,17.0,27.0,87,0.02,,,0.11,108.000000,,2013-04-07 01:52:00,
2013-04-06 19:23:00,37.0,34.0,-100.00,WSW,243,8.0,30.0,90,0.03,,,0.13,13.000000,,2013-04-07 02:23:00,
2013-04-06 19:32:00,37.0,34.0,-100.00,WSW,243,8.0,30.0,90,0.03,,,0.13,13.000000,,2013-04-07 02:32:00,
2013-04-06 19:42:00,37.0,34.0,-100.00,WSW,243,8.0,30.0,90,0.03,,,0.13,13.000000,,2013-04-07 02:42:00,
2013-04-06 19:52:00,37.0,34.0,-100.00,WSW,243,8.0,30.0,90,0.03,,,0.13,13.000000,,2013-04-07 02:52:00,
2013-04-06 20:22:00,36.0,35.0,-100.00,ESE,104,2.0,18.0,96,0.02,,,0.14,9.000000,,2013-04-07 03:22:00,
2013-04-06 20:33:00,36.0,35.0,-100.00,ESE,104,2.0,18.0,96,0.02,,,0.14,9.000000,,2013-04-07 03:33:00,
2013-04-06 20:43:00,36.0,35.0,-100.00,ESE,104,2.0,18.0,96,0.02,,,0.14,9.000000,,2013-04-07 03:43:00,
2013-04-06 20:52:00,36.0,35.0,-100.00,ESE,104,2.0,18.0,96,0.02,,,0.14,9.000000,,2013-04-07 03:52:00,
2013-04-06 21:23:00,36.0,35.0,-100.00,SSW,208,1.0,5.0,96,0.00,,,0.14,1.000000,,2013-04-07 04:23:00,
2013-04-06 21:32:00,36.0,35.0,-100.00,SSW,208,1.0,5.0,96,0.00,,,0.14,1.000000,,2013-04-07 04:32:00,
2013-04-06 21:43:00,36.0,35.0,-100.00,SSW,208,1.0,5.0,96,0.00,,,0.14,1.000000,,2013-04-07 04:43:00,
2013-04-06 21:52:00,36.0,35.0,-100.00,SSW,208,1.0,5.0,96,0.00,,,0.14,1.000000,,2013-04-07 04:52:00,
2013-04-06 22:22:00,38.0,36.0,-100.00,SSW,198,6.0,12.0,92,0.04,,,0.18,1.000000,,2013-04-07 05:22:00,
2013-04-06 22:33:00,38.0,36.0,-100.00,SSW,198,6.0,12.0,92,0.04,,,0.18,1.000000,,2013-04-07 05:33:00,
2013-04-06 22:42:00,38.0,36.0,-100.00,SSW,198,6.0,12.0,92,0.04,,,0.18,1.000000,,2013-04-07 05:42:00,
2013-04-06 22:52:00,38.0,36.0,-100.00,SSW,198,6.0,12.0,92,0.04,,,0.18,1.000000,,2013-04-07 05:52:00,
2013-04-06 23:22:00,39.0,37.0,-100.00,SSW,202,9.0,18.0,94,0.03,,,0.21,1.000000,,2013-04-07 06:22:00,
2013-04-06 23:32:00,39.0,37.0,-100.00,SSW,202,9.0,18.0,94,0.03,,,0.21,1.000000,,2013-04-07 06:32:00,
2013-04-06 23:42:00,39.0,37.0,-100.00,SSW,202,9.0,18.0,94,0.03,,,0.21,1.000000,,2013-04-07 06:42:00,
2013-04-06 23:52:00,39.0,37.0,-100.00,SSW,202,9.0,18.0,94,0.03,,,0.21,1.000000,,2013-04-07 06:52:00,